createdAt,value
2018-11-03T00:00:56.748Z,30.53
2018-11-03T00:03:25.259Z,22.73
2018-11-03T00:05:53.412Z,26.20
2018-11-03T00:08:21.541Z,24.80
2018-11-03T00:10:49.766Z,22.10
2018-11-03T00:13:17.898Z,24.93
2018-11-03T00:15:46.072Z,21.50
2018-11-03T00:18:14.181Z,21.03
2018-11-03T00:20:42.334Z,23.03
2018-11-03T00:23:10.470Z,22.57
2018-11-03T00:25:38.625Z,21.83
2018-11-03T00:28:06.944Z,20.30
2018-11-03T00:30:35.124Z,20.77
2018-11-03T00:33:03.254Z,20.20
2018-11-03T00:35:31.401Z,20.23
2018-11-03T00:37:59.547Z,21.90
2018-11-03T00:40:27.744Z,18.40
2018-11-03T00:42:55.985Z,19.87
2018-11-03T00:45:24.091Z,17.33
2018-11-03T00:47:52.227Z,17.53
2018-11-03T00:50:20.381Z,18.57
2018-11-03T00:52:48.514Z,18.67
2018-11-03T00:55:16.662Z,23.60
2018-11-03T00:57:44.798Z,17.17
2018-11-03T01:00:14.846Z,18.13
2018-11-03T01:02:45.178Z,17.90
2018-11-03T01:05:13.568Z,18.90
2018-11-03T01:07:42.454Z,20.90
2018-11-03T01:10:10.850Z,19.30
2018-11-03T01:12:39.623Z,16.73
2018-11-03T01:15:09.894Z,19.10
2018-11-03T01:17:38.027Z,15.77
2018-11-03T01:20:07.290Z,19.20
2018-11-03T01:22:35.451Z,15.50
2018-11-03T01:25:03.572Z,15.10
2018-11-03T01:27:31.719Z,15.60
2018-11-03T01:29:59.851Z,18.73
2018-11-03T01:32:28.098Z,17.20
2018-11-03T01:34:56.237Z,14.07
2018-11-03T01:37:24.414Z,16.13
2018-11-03T01:39:52.519Z,15.73
2018-11-03T01:42:20.661Z,16.67
2018-11-03T01:44:48.806Z,14.27
2018-11-03T01:47:16.956Z,14.07
2018-11-03T01:49:45.118Z,14.17
2018-11-03T01:52:13.269Z,13.20
2018-11-03T01:54:41.409Z,13.23
2018-11-03T01:57:09.574Z,13.77
2018-11-03T01:59:37.726Z,12.40
2018-11-03T02:02:05.907Z,12.20
2018-11-03T02:04:34.050Z,13.20
2018-11-03T02:07:02.210Z,12.00
2018-11-03T02:09:30.379Z,14.70
2018-11-03T02:11:58.537Z,14.70
2018-11-03T02:14:26.695Z,11.90
2018-11-03T02:16:54.850Z,15.73
2018-11-03T02:19:25.711Z,15.50
2018-11-03T02:21:53.911Z,13.67
2018-11-03T02:24:22.067Z,14.20
2018-11-03T02:26:50.232Z,15.47
2018-11-03T02:29:18.382Z,13.90
2018-11-03T02:31:46.534Z,13.00
2018-11-03T02:34:14.730Z,14.70
2018-11-03T02:36:42.887Z,15.10
2018-11-03T02:39:11.091Z,14.60
2018-11-03T02:41:39.258Z,15.30
2018-11-03T02:44:07.406Z,11.17
2018-11-03T02:46:35.570Z,13.97
2018-11-03T02:49:03.734Z,12.67
2018-11-03T02:51:31.886Z,12.30
2018-11-03T02:54:00.043Z,15.30
2018-11-03T02:56:28.203Z,12.80
2018-11-03T02:58:56.363Z,14.17
2018-11-03T03:01:24.533Z,13.60
2018-11-03T03:03:52.719Z,14.53
2018-11-03T03:06:20.883Z,12.20
2018-11-03T03:08:49.024Z,11.67
2018-11-03T03:11:17.194Z,15.03
2018-11-03T03:13:45.355Z,15.10
2018-11-03T03:16:13.498Z,10.97
2018-11-03T03:18:41.662Z,12.37
2018-11-03T03:21:09.817Z,12.83
2018-11-03T03:23:38.011Z,11.50
2018-11-03T03:26:06.852Z,11.37
2018-11-03T03:28:35.026Z,13.40
2018-11-03T03:31:03.158Z,14.90
2018-11-03T03:33:31.379Z,13.13
2018-11-03T03:35:59.507Z,14.43
2018-11-03T03:38:27.662Z,13.27
2018-11-03T03:40:55.818Z,12.87
2018-11-03T03:43:23.979Z,13.83
2018-11-03T03:45:52.136Z,10.03
2018-11-03T03:48:20.298Z,13.57
2018-11-03T03:50:48.426Z,12.17
2018-11-03T03:53:16.705Z,13.40
2018-11-03T03:55:44.843Z,13.20
2018-11-03T03:58:12.982Z,18.33
2018-11-03T04:00:41.166Z,12.77
2018-11-03T04:03:09.323Z,12.40
2018-11-03T04:05:37.459Z,14.27
2018-11-03T04:08:05.808Z,12.80
2018-11-03T04:10:33.950Z,14.73
2018-11-03T04:13:02.242Z,15.47
2018-11-03T04:15:30.379Z,15.00
2018-11-03T04:17:58.790Z,12.40
2018-11-03T04:20:26.927Z,15.63
2018-11-03T04:22:55.067Z,14.90
2018-11-03T04:25:23.203Z,13.97
2018-11-03T04:27:51.349Z,12.93
2018-11-03T04:30:19.491Z,13.80
2018-11-03T04:32:47.632Z,16.23
2018-11-03T04:35:15.761Z,13.00
2018-11-03T04:37:43.905Z,13.03
2018-11-03T04:40:12.795Z,14.03
2018-11-03T04:42:41.532Z,12.47
2018-11-03T04:45:10.525Z,17.07
2018-11-03T04:47:38.658Z,15.17
2018-11-03T04:50:07.352Z,15.60
2018-11-03T04:52:35.507Z,18.60
2018-11-03T04:55:03.820Z,14.70
2018-11-03T04:57:31.943Z,14.30
2018-11-03T05:00:00.091Z,15.50
2018-11-03T05:02:28.269Z,13.40
2018-11-03T05:04:56.370Z,12.93
2018-11-03T05:07:24.502Z,24.93
2018-11-03T05:09:52.708Z,13.93
2018-11-03T05:12:20.778Z,12.30
2018-11-03T05:14:48.926Z,15.87
2018-11-03T05:17:17.063Z,16.93
2018-11-03T05:19:45.208Z,16.20
2018-11-03T05:22:13.341Z,15.40
2018-11-03T05:24:41.491Z,11.90
2018-11-03T05:27:09.631Z,16.03
2018-11-03T05:29:37.783Z,18.10
2018-11-03T05:32:06.110Z,15.53
2018-11-03T05:34:34.242Z,20.17
2018-11-03T05:37:02.387Z,16.17
2018-11-03T05:39:30.530Z,17.40
2018-11-03T05:41:58.675Z,16.07
2018-11-03T05:44:26.814Z,17.50
2018-11-03T05:46:54.954Z,22.97
2018-11-03T05:49:23.106Z,18.00
2018-11-03T05:51:51.250Z,16.73
2018-11-03T05:54:19.496Z,17.07
2018-11-03T05:56:47.627Z,19.17
2018-11-03T05:59:15.793Z,17.00
2018-11-03T06:01:43.915Z,21.90
2018-11-03T06:04:12.081Z,16.80
2018-11-03T06:06:40.214Z,18.13
2018-11-03T06:09:09.143Z,18.43
2018-11-03T06:11:37.325Z,15.53
2018-11-03T06:14:05.606Z,17.00
2018-11-03T06:16:33.745Z,18.17
2018-11-03T06:19:01.971Z,18.00
2018-11-03T06:21:30.102Z,18.47
2018-11-03T06:23:58.253Z,22.10
2018-11-03T06:26:26.396Z,17.90
2018-11-03T06:28:54.542Z,16.60
2018-11-03T06:31:22.683Z,20.80
2018-11-03T06:33:50.839Z,17.33
2018-11-03T06:36:18.981Z,19.40
2018-11-03T06:38:47.165Z,20.50
2018-11-03T06:41:15.258Z,18.60
2018-11-03T06:43:43.426Z,19.33
2018-11-03T06:46:11.555Z,20.10
2018-11-03T06:48:39.735Z,20.10
2018-11-03T06:51:07.902Z,19.77
2018-11-03T06:53:36.088Z,21.40
2018-11-03T06:56:04.254Z,18.07
2018-11-03T06:58:32.426Z,17.83
2018-11-03T07:01:00.615Z,19.87
2018-11-03T07:03:29.044Z,21.20
2018-11-03T07:05:57.210Z,20.20
2018-11-03T07:08:25.367Z,18.03
2018-11-03T07:10:53.550Z,16.70
2018-11-03T07:13:21.828Z,18.50
2018-11-03T07:15:49.855Z,16.80
2018-11-03T07:18:18.050Z,19.80
2018-11-03T07:20:46.206Z,18.97
2018-11-03T07:23:14.417Z,19.70
2018-11-03T07:25:42.579Z,23.17
2018-11-03T07:28:10.738Z,20.97
2018-11-03T07:30:38.932Z,17.80
2018-11-03T07:33:07.066Z,22.87
2018-11-03T07:35:35.305Z,21.87
2018-11-03T07:38:03.462Z,22.17
2018-11-03T07:40:31.633Z,18.80
2018-11-03T07:42:59.782Z,22.13
2018-11-03T07:45:27.946Z,18.97
2018-11-03T07:47:56.164Z,26.40
2018-11-03T07:50:24.301Z,21.40
2018-11-03T07:52:52.450Z,21.63
2018-11-03T07:55:20.598Z,15.93
2018-11-03T07:57:48.750Z,21.73
2018-11-03T08:00:16.912Z,31.80
2018-11-03T08:02:45.053Z,20.50
2018-11-03T08:05:13.362Z,24.53
2018-11-03T08:07:41.542Z,19.87
2018-11-03T08:10:10.782Z,23.10
2018-11-03T08:12:38.917Z,23.67
2018-11-03T08:15:07.954Z,24.20
2018-11-03T08:17:36.098Z,26.73
2018-11-03T08:20:04.479Z,25.17
2018-11-03T08:22:32.682Z,26.53
2018-11-03T08:25:00.830Z,28.80
2018-11-03T08:27:28.979Z,28.83
2018-11-03T08:29:57.122Z,31.40
2018-11-03T08:32:25.292Z,26.33
2018-11-03T08:34:53.423Z,27.80
2018-11-03T08:37:21.583Z,31.93
2018-11-03T08:39:49.716Z,35.13
2018-11-03T08:42:17.874Z,34.93
2018-11-03T08:44:46.031Z,34.27
2018-11-03T08:47:14.179Z,30.00
2018-11-03T08:49:42.330Z,30.57
2018-11-03T08:52:10.478Z,30.13
2018-11-03T08:54:38.613Z,32.50
2018-11-03T08:57:06.763Z,27.03
2018-11-03T08:59:35.130Z,29.23
2018-11-03T09:02:03.171Z,30.47
2018-11-03T09:04:31.309Z,33.20
2018-11-03T09:06:59.490Z,28.97
2018-11-03T09:09:27.621Z,34.93
2018-11-03T09:11:55.787Z,29.97
2018-11-03T09:14:23.962Z,28.90
2018-11-03T09:16:52.333Z,31.97
2018-11-03T09:19:20.489Z,35.60
2018-11-03T09:21:48.717Z,35.03
2018-11-03T09:24:16.843Z,34.90
2018-11-03T09:26:45.030Z,31.10
2018-11-03T09:29:13.186Z,33.90
2018-11-03T09:31:41.409Z,32.30
2018-11-03T09:34:10.375Z,34.13
2018-11-03T09:36:38.566Z,36.60
2018-11-03T09:39:08.777Z,35.20
2018-11-03T09:41:37.414Z,32.63
2018-11-03T09:44:05.582Z,34.10
2018-11-03T09:46:33.759Z,36.60
2018-11-03T09:49:01.916Z,40.77
2018-11-03T09:51:30.067Z,35.27
2018-11-03T09:53:58.215Z,37.33
2018-11-03T09:56:26.424Z,36.60
2018-11-03T09:58:54.528Z,34.13
2018-11-03T10:01:22.647Z,39.23
2018-11-03T10:03:50.884Z,42.20
2018-11-03T10:06:19.037Z,37.87
2018-11-03T10:08:47.180Z,34.80
2018-11-03T10:11:15.341Z,36.50
2018-11-03T10:13:43.486Z,40.70
2018-11-03T10:16:11.649Z,42.20
2018-11-03T10:18:39.804Z,39.27
2018-11-03T10:21:07.971Z,35.33
2018-11-03T10:23:36.144Z,32.90
2018-11-03T10:26:04.505Z,30.80
2018-11-03T10:28:32.659Z,33.27
2018-11-03T10:31:00.818Z,34.87
2018-11-03T10:33:29.058Z,37.47
2018-11-03T10:35:57.191Z,38.37
2018-11-03T10:38:25.337Z,35.70
2018-11-03T10:40:53.483Z,34.17
2018-11-03T10:43:21.640Z,29.80
2018-11-03T10:45:49.774Z,25.30
2018-11-03T10:48:17.947Z,33.73
2018-11-03T10:50:46.092Z,30.10
2018-11-03T10:53:14.238Z,35.70
2018-11-03T10:55:42.382Z,35.73
2018-11-03T10:58:10.550Z,35.80
2018-11-03T11:00:44.045Z,30.30
2018-11-03T11:03:17.631Z,32.03
2018-11-03T11:05:51.226Z,29.90
2018-11-03T11:08:24.715Z,30.77
2018-11-03T11:10:58.119Z,26.67
2018-11-03T11:13:28.175Z,24.32
2018-11-03T11:15:57.690Z,28.00
2018-11-03T11:18:25.730Z,26.37
2018-11-03T11:20:53.954Z,27.90
2018-11-03T11:23:22.149Z,22.70
2018-11-03T11:25:50.239Z,25.17
2018-11-03T11:28:18.403Z,21.70
2018-11-03T11:30:46.730Z,22.60
2018-11-03T11:33:16.054Z,23.60
2018-11-03T11:35:44.205Z,25.43
2018-11-03T11:38:13.238Z,23.00
2018-11-03T11:40:41.715Z,23.90
2018-11-03T11:43:10.775Z,25.67
2018-11-03T11:45:39.181Z,24.07
2018-11-03T11:48:07.340Z,26.50
2018-11-03T11:50:35.581Z,24.47
2018-11-03T11:53:03.804Z,19.37
2018-11-03T11:55:32.021Z,21.30
2018-11-03T11:58:00.152Z,21.07
2018-11-03T12:00:28.425Z,22.43
2018-11-03T12:02:56.546Z,18.57
2018-11-03T12:05:24.725Z,16.77
2018-11-03T12:07:52.879Z,19.67
2018-11-03T12:10:21.036Z,14.57
2018-11-03T12:12:49.181Z,14.63
2018-11-03T12:15:17.364Z,15.53
2018-11-03T12:17:45.517Z,13.57
2018-11-03T12:20:13.670Z,13.57
2018-11-03T12:22:41.811Z,16.00
2018-11-03T12:25:10.992Z,14.73
2018-11-03T12:27:39.430Z,13.37
2018-11-03T12:30:09.668Z,14.43
2018-11-03T12:32:38.043Z,15.47
2018-11-03T12:35:06.342Z,14.57
2018-11-03T12:37:34.480Z,15.30
2018-11-03T12:40:02.634Z,18.27
2018-11-03T12:42:30.792Z,24.10
2018-11-03T12:44:58.933Z,19.00
2018-11-03T12:47:27.070Z,23.63
2018-11-03T12:49:59.596Z,22.43
2018-11-03T12:52:28.977Z,23.40
2018-11-03T12:54:57.255Z,21.17
2018-11-03T12:57:25.341Z,20.47
2018-11-03T12:59:53.537Z,24.80
2018-11-03T13:02:21.709Z,24.40
2018-11-03T13:04:49.932Z,23.97
2018-11-03T13:07:18.060Z,20.80
2018-11-03T13:09:46.231Z,20.63
2018-11-03T13:12:14.482Z,17.40
2018-11-03T13:14:42.609Z,15.13
2018-11-03T13:17:12.454Z,16.90
2018-11-03T13:19:41.066Z,16.23
2018-11-03T13:22:09.201Z,19.70
2018-11-03T13:24:37.406Z,16.90
2018-11-03T13:27:05.567Z,17.63
2018-11-03T13:29:33.749Z,16.77
2018-11-03T13:32:01.911Z,19.87
2018-11-03T13:34:30.074Z,15.93
2018-11-03T13:36:58.235Z,14.00
2018-11-03T13:39:26.407Z,13.37
2018-11-03T13:41:54.562Z,11.37
2018-11-03T13:44:22.727Z,16.20
2018-11-03T13:46:50.894Z,18.60
2018-11-03T13:49:19.041Z,14.93
2018-11-03T13:51:47.205Z,14.90
2018-11-03T13:54:15.341Z,14.77
2018-11-03T13:56:43.495Z,13.90
2018-11-03T13:59:11.631Z,14.00
2018-11-03T14:01:39.778Z,18.13
2018-11-03T14:04:07.914Z,13.73
2018-11-03T14:06:36.075Z,30.73
2018-11-03T14:09:05.774Z,16.30
2018-11-03T14:11:33.922Z,22.37
2018-11-03T14:14:02.068Z,41.80
2018-11-03T14:16:30.210Z,27.20
2018-11-03T14:18:58.359Z,13.93
2018-11-03T14:21:26.507Z,15.10
2018-11-03T14:23:54.647Z,12.63
2018-11-03T14:26:22.808Z,12.80
2018-11-03T14:28:51.005Z,12.37
2018-11-03T14:31:19.119Z,12.63
2018-11-03T14:33:47.363Z,11.13
2018-11-03T14:36:15.580Z,10.47
2018-11-03T14:38:43.701Z,10.73
2018-11-03T14:41:11.842Z,11.43
2018-11-03T14:43:40.087Z,9.40
2018-11-03T14:46:08.186Z,12.13
2018-11-03T14:48:36.338Z,11.70
2018-11-03T14:51:04.929Z,10.47
2018-11-03T14:53:33.004Z,9.53
2018-11-03T14:56:01.149Z,11.60
2018-11-03T14:58:29.298Z,12.33
2018-11-03T15:00:57.446Z,12.23
2018-11-03T15:03:25.598Z,17.60
2018-11-03T15:05:53.742Z,12.77
2018-11-03T15:08:21.966Z,18.03
2018-11-03T15:10:50.058Z,17.17
2018-11-03T15:13:18.236Z,15.80
2018-11-03T15:15:46.382Z,16.10
2018-11-03T15:18:14.535Z,17.50
2018-11-03T15:20:42.697Z,21.00
2018-11-03T15:23:10.853Z,16.60
2018-11-03T15:25:39.011Z,18.13
2018-11-03T15:28:07.166Z,17.80
2018-11-03T15:30:35.311Z,15.87
2018-11-03T15:33:03.467Z,19.83
2018-11-03T15:35:31.644Z,19.53
2018-11-03T15:37:59.780Z,19.30
2018-11-03T15:40:27.942Z,21.43
2018-11-03T15:42:56.106Z,29.63
2018-11-03T15:45:24.255Z,19.40
2018-11-03T15:47:52.415Z,21.47
2018-11-03T15:50:20.557Z,22.67
2018-11-03T15:52:48.711Z,18.83
2018-11-03T15:55:16.875Z,21.10
2018-11-03T15:57:45.018Z,24.30
2018-11-03T16:00:15.514Z,24.20
2018-11-03T16:02:43.782Z,24.00
2018-11-03T16:05:11.950Z,22.40
2018-11-03T16:07:40.111Z,24.20
2018-11-03T16:10:09.159Z,23.13
2018-11-03T16:12:37.360Z,23.07
2018-11-03T16:15:06.482Z,23.60
2018-11-03T16:17:34.610Z,24.97
2018-11-03T16:20:02.761Z,22.63
2018-11-03T16:22:30.989Z,28.33
2018-11-03T16:24:59.099Z,24.60
2018-11-03T16:27:27.246Z,30.43
2018-11-03T16:29:55.390Z,26.90
2018-11-03T16:32:23.725Z,24.30
2018-11-03T16:34:51.789Z,25.00
2018-11-03T16:37:20.123Z,23.67
2018-11-03T16:39:48.278Z,23.67
2018-11-03T16:42:16.424Z,20.93
2018-11-03T16:44:44.554Z,21.30
2018-11-03T16:47:12.791Z,24.13
2018-11-03T16:49:40.950Z,23.50
2018-11-03T16:52:09.118Z,21.50
2018-11-03T16:54:37.282Z,20.10
2018-11-03T16:57:05.462Z,26.17
2018-11-03T16:59:33.623Z,20.20
2018-11-03T17:02:01.787Z,23.90
2018-11-03T17:04:29.943Z,19.47
2018-11-03T17:06:58.208Z,20.20
2018-11-03T17:09:26.279Z,23.63
2018-11-03T17:11:54.467Z,18.50
2018-11-03T17:14:22.627Z,23.60
2018-11-03T17:16:50.781Z,22.13
2018-11-03T17:19:18.941Z,21.30
2018-11-03T17:21:47.102Z,22.23
2018-11-03T17:24:15.271Z,24.23
2018-11-03T17:26:43.418Z,23.53
2018-11-03T17:29:11.582Z,27.90
2018-11-03T17:31:39.738Z,26.73
2018-11-03T17:34:07.927Z,31.23
2018-11-03T17:36:36.078Z,29.30
2018-11-03T17:39:05.975Z,32.13
2018-11-03T17:41:34.139Z,31.53
2018-11-03T17:44:02.390Z,30.27
2018-11-03T17:46:30.476Z,28.60
2018-11-03T17:48:58.747Z,30.33
2018-11-03T17:51:26.903Z,33.83
2018-11-03T17:53:55.071Z,58.60
2018-11-03T17:56:23.227Z,51.50
2018-11-03T17:58:51.390Z,48.23
2018-11-03T18:01:19.689Z,40.87
2018-11-03T18:03:47.694Z,40.67
2018-11-03T18:06:15.870Z,39.10
2018-11-03T18:08:44.011Z,39.27
2018-11-03T18:11:12.167Z,41.13
2018-11-03T18:13:40.327Z,37.70
2018-11-03T18:16:08.487Z,43.47
2018-11-03T18:18:36.642Z,43.43
2018-11-03T18:21:04.975Z,39.50
2018-11-03T18:23:33.131Z,40.53
2018-11-03T18:26:01.369Z,47.20
2018-11-03T18:28:29.455Z,46.67
2018-11-03T18:30:57.780Z,39.13
2018-11-03T18:33:25.913Z,41.23
2018-11-03T18:35:53.950Z,44.17
2018-11-03T18:38:22.099Z,41.93
2018-11-03T18:40:50.259Z,41.00
2018-11-03T18:43:18.432Z,40.10
2018-11-03T18:45:46.687Z,39.40
2018-11-03T18:48:14.842Z,35.87
2018-11-03T18:50:43.014Z,36.43
2018-11-03T18:53:11.172Z,40.97
2018-11-03T18:55:39.339Z,43.23
2018-11-03T18:58:07.495Z,41.10
2018-11-03T19:00:35.662Z,41.20
2018-11-03T19:03:03.817Z,43.23
2018-11-03T19:05:31.993Z,45.47
2018-11-03T19:08:00.179Z,44.65
2018-11-03T19:10:28.342Z,43.23
2018-11-03T19:12:56.581Z,43.57
2018-11-03T19:15:24.717Z,45.30
2018-11-03T19:17:52.858Z,43.40
2018-11-03T19:20:21.086Z,39.30
2018-11-03T19:22:49.262Z,47.33
2018-11-03T19:25:17.470Z,44.47
2018-11-03T19:27:45.682Z,44.50
2018-11-03T19:30:14.624Z,42.07
2018-11-03T19:32:44.044Z,42.07
2018-11-03T19:35:12.229Z,43.90
2018-11-03T19:37:41.003Z,43.50
2018-11-03T19:40:10.197Z,42.60
2018-11-03T19:42:38.687Z,46.50
2018-11-03T19:45:06.866Z,42.90
2018-11-03T19:47:35.058Z,44.33
2018-11-03T19:50:03.246Z,44.83
2018-11-03T19:52:31.454Z,39.00
2018-11-03T19:54:59.670Z,39.97
2018-11-03T19:57:27.838Z,39.33
2018-11-03T19:59:56.003Z,45.80
2018-11-03T20:02:24.168Z,39.00
2018-11-03T20:04:52.349Z,35.07
2018-11-03T20:07:20.620Z,39.23
2018-11-03T20:09:48.856Z,37.77
2018-11-03T20:12:17.003Z,49.80
2018-11-03T20:14:45.181Z,35.27
2018-11-03T20:17:13.351Z,39.60
2018-11-03T20:19:41.513Z,51.47
2018-11-03T20:22:09.726Z,63.13
2018-11-03T20:24:37.923Z,43.70
2018-11-03T20:27:06.139Z,50.03
2018-11-03T20:29:34.295Z,51.90
2018-11-03T20:32:02.494Z,62.00
2018-11-03T20:34:30.655Z,56.40
2018-11-03T20:36:58.928Z,56.00
2018-11-03T20:39:27.142Z,55.27
2018-11-03T20:41:55.354Z,56.97
2018-11-03T20:44:23.453Z,56.90
2018-11-03T20:46:51.626Z,55.80
2018-11-03T20:49:19.817Z,56.13
2018-11-03T20:51:47.987Z,52.33
2018-11-03T20:54:16.159Z,53.93
2018-11-03T20:56:44.334Z,52.00
2018-11-03T20:59:12.518Z,52.70
2018-11-03T21:01:40.755Z,51.93
2018-11-03T21:04:08.878Z,49.57
2018-11-03T21:06:37.296Z,44.73
2018-11-03T21:09:07.122Z,46.17
2018-11-03T21:11:35.399Z,41.63
2018-11-03T21:14:03.570Z,48.67
2018-11-03T21:16:31.807Z,39.27
2018-11-03T21:18:59.911Z,41.07
2018-11-03T21:21:28.055Z,40.17
2018-11-03T21:23:56.328Z,47.40
2018-11-03T21:26:24.411Z,48.93
2018-11-03T21:28:52.582Z,58.47
2018-11-03T21:31:20.762Z,52.53
2018-11-03T21:33:48.939Z,49.90
2018-11-03T21:36:17.115Z,44.00
2018-11-03T21:38:45.325Z,46.63
2018-11-03T21:41:13.473Z,48.47
2018-11-03T21:43:41.691Z,46.23
2018-11-03T21:46:09.953Z,44.13
2018-11-03T21:48:38.082Z,44.40
2018-11-03T21:51:06.274Z,47.97
2018-11-03T21:53:34.500Z,48.80
2018-11-03T21:56:02.684Z,44.23
2018-11-03T21:58:30.834Z,42.17
2018-11-03T22:00:58.999Z,47.80
2018-11-03T22:03:27.175Z,46.43
2018-11-03T22:05:55.355Z,40.83
2018-11-03T22:08:23.517Z,42.50
2018-11-03T22:10:51.675Z,42.03
2018-11-03T22:13:19.849Z,46.60
2018-11-03T22:15:48.071Z,42.10
2018-11-03T22:18:16.211Z,38.50
2018-11-03T22:20:44.371Z,40.47
2018-11-03T22:23:12.567Z,44.10
2018-11-03T22:25:40.733Z,43.23
2018-11-03T22:28:08.980Z,45.10
2018-11-03T22:30:37.083Z,41.17
2018-11-03T22:33:05.487Z,44.57
2018-11-03T22:35:33.642Z,42.73
2018-11-03T22:38:01.906Z,45.70
2018-11-03T22:40:30.070Z,40.17
2018-11-03T22:42:58.234Z,41.17
2018-11-03T22:45:26.392Z,52.37
2018-11-03T22:47:54.616Z,46.40
2018-11-03T22:50:22.758Z,47.50
2018-11-03T22:52:50.910Z,46.50
2018-11-03T22:55:19.082Z,44.47
2018-11-03T22:57:47.229Z,43.27
2018-11-03T23:00:15.403Z,43.23
2018-11-03T23:02:44.194Z,40.97
2018-11-03T23:05:13.375Z,40.07
2018-11-03T23:07:41.831Z,45.33
2018-11-03T23:10:10.118Z,42.27
2018-11-03T23:12:38.341Z,38.87
2018-11-03T23:15:07.368Z,44.60
2018-11-03T23:17:35.511Z,41.77
2018-11-03T23:20:03.743Z,41.80
2018-11-03T23:22:31.871Z,42.47
2018-11-03T23:25:00.027Z,45.17
2018-11-03T23:27:28.165Z,44.10
2018-11-03T23:29:56.461Z,42.17
2018-11-03T23:32:24.455Z,43.57
2018-11-03T23:34:52.598Z,45.30
2018-11-03T23:37:20.738Z,44.30
2018-11-03T23:39:48.888Z,45.30
2018-11-03T23:42:17.021Z,44.50
2018-11-03T23:44:45.226Z,47.80
2018-11-03T23:47:13.310Z,41.57
2018-11-03T23:49:41.482Z,44.60
2018-11-03T23:52:09.641Z,46.67
2018-11-03T23:54:37.799Z,44.73
2018-11-03T23:57:05.970Z,45.07
2018-11-03T23:59:34.304Z,46.27
